createdAt,value
2018-11-25T00:01:06.857Z,43.67
2018-11-25T00:03:39.605Z,51.13
2018-11-25T00:06:15.378Z,38.40
2018-11-25T00:08:47.367Z,47.43
2018-11-25T00:11:22.823Z,50.93
2018-11-25T00:13:53.344Z,43.10
2018-11-25T00:16:23.950Z,41.90
2018-11-25T00:18:54.465Z,67.87
2018-11-25T00:21:24.986Z,91.77
2018-11-25T00:23:57.755Z,39.17
2018-11-25T00:26:28.878Z,43.07
2018-11-25T00:29:01.921Z,57.63
2018-11-25T00:31:33.955Z,88.90
2018-11-25T00:34:09.414Z,59.37
2018-11-25T00:36:41.780Z,67.93
2018-11-25T00:39:12.600Z,64.27
2018-11-25T00:41:43.129Z,38.30
2018-11-25T00:44:13.674Z,80.67
2018-11-25T00:46:44.539Z,59.63
2018-11-25T00:49:17.801Z,89.27
2018-11-25T00:51:54.465Z,53.60
2018-11-25T00:54:26.698Z,83.77
2018-11-25T00:56:57.838Z,92.80
2018-11-25T00:59:32.089Z,80.40
2018-11-25T01:02:05.167Z,77.57
2018-11-25T01:04:39.734Z,66.53
2018-11-25T01:07:11.258Z,50.63
2018-11-25T01:09:45.088Z,61.23
2018-11-25T01:12:17.627Z,44.70
2018-11-25T01:14:51.979Z,54.20
2018-11-25T01:17:24.257Z,130.03
2018-11-25T01:19:54.822Z,43.10
2018-11-25T01:22:25.634Z,91.70
2018-11-25T01:24:58.729Z,43.90
2018-11-25T01:27:32.042Z,106.77
2018-11-25T01:30:07.223Z,154.50
2018-11-25T01:32:38.969Z,78.13
2018-11-25T01:37:57.777Z,139.37
2018-11-25T01:40:42.800Z,122.73
2018-11-25T01:43:15.603Z,205.67
2018-11-25T01:45:52.417Z,106.67
2018-11-25T01:48:24.912Z,87.90
2018-11-25T01:50:59.605Z,177.87
2018-11-25T01:53:35.036Z,142.20
2018-11-25T01:56:08.615Z,194.00
2018-11-25T01:58:41.011Z,186.23
2018-11-25T02:01:14.819Z,197.47
2018-11-25T02:03:48.522Z,148.13
2018-11-25T02:06:21.121Z,121.97
2018-11-25T02:08:53.601Z,180.37
2018-11-25T02:11:24.237Z,158.53
2018-11-25T02:13:55.437Z,128.00
2018-11-25T02:16:26.449Z,78.73
2018-11-25T02:18:59.181Z,83.07
2018-11-25T02:21:31.148Z,62.30
2018-11-25T02:24:04.170Z,67.70
2018-11-25T02:26:38.098Z,92.03
2018-11-25T02:29:09.185Z,111.33
2018-11-25T02:31:40.333Z,51.63
2018-11-25T02:34:12.218Z,47.53
2018-11-25T02:36:44.437Z,79.23
2018-11-25T02:39:17.453Z,73.17
2018-11-25T02:41:51.374Z,75.23
2018-11-25T02:44:24.266Z,60.67
2018-11-25T02:46:57.957Z,55.93
2018-11-25T02:49:31.271Z,72.00
2018-11-25T02:52:04.789Z,62.07
2018-11-25T02:54:37.379Z,66.43
2018-11-25T02:57:09.605Z,63.00
2018-11-25T02:59:40.993Z,52.57
2018-11-25T03:02:15.297Z,51.57
2018-11-25T03:04:48.814Z,92.30
2018-11-25T03:07:21.178Z,65.63
2018-11-25T03:09:55.161Z,138.10
2018-11-25T03:12:34.642Z,45.20
2018-11-25T03:15:06.123Z,93.60
2018-11-25T03:17:38.366Z,77.97
2018-11-25T03:20:13.604Z,89.20
2018-11-25T03:23:03.316Z,75.30
2018-11-25T03:25:36.297Z,101.43
2018-11-25T03:28:07.750Z,70.67
2018-11-25T03:30:40.297Z,63.97
2018-11-25T03:33:15.392Z,67.03
2018-11-25T03:36:03.403Z,52.57
2018-11-25T03:38:50.825Z,79.70
2018-11-25T03:41:22.698Z,81.80
2018-11-25T03:43:54.852Z,72.10
2018-11-25T03:46:25.829Z,75.97
2018-11-25T03:48:59.389Z,75.13
2018-11-25T03:51:32.463Z,84.17
2018-11-25T03:54:04.743Z,51.97
2018-11-25T03:56:37.411Z,57.40
2018-11-25T03:59:10.590Z,58.37
2018-11-25T04:01:41.975Z,74.03
2018-11-25T04:04:13.494Z,59.23
2018-11-25T04:06:46.690Z,83.83
2018-11-25T04:09:18.537Z,58.50
2018-11-25T04:11:52.618Z,70.73
2018-11-25T04:14:23.169Z,55.47
2018-11-25T04:16:56.509Z,74.33
2018-11-25T04:19:29.333Z,47.17
2018-11-25T04:21:59.994Z,77.20
2018-11-25T04:24:30.638Z,63.00
2018-11-25T04:27:03.810Z,56.77
2018-11-25T04:29:38.007Z,50.57
2018-11-25T04:32:10.775Z,65.30
2018-11-25T04:34:46.453Z,52.90
2018-11-25T04:37:17.021Z,53.67
2018-11-25T04:39:47.900Z,45.40
2018-11-25T04:42:21.142Z,49.77
2018-11-25T04:44:54.732Z,53.13
2018-11-25T04:47:27.866Z,58.23
2018-11-25T04:50:00.819Z,65.63
2018-11-25T04:52:34.002Z,59.80
2018-11-25T04:55:04.534Z,64.63
2018-11-25T04:57:37.673Z,56.93
2018-11-25T05:00:12.665Z,58.83
2018-11-25T05:02:54.205Z,59.33
2018-11-25T05:05:42.037Z,61.47
2018-11-25T05:08:13.049Z,69.00
2018-11-25T05:10:46.166Z,68.90
2018-11-25T05:13:18.872Z,66.10
2018-11-25T05:15:52.066Z,76.27
2018-11-25T05:18:22.900Z,62.23
2018-11-25T05:20:55.018Z,59.80
2018-11-25T05:23:40.654Z,66.53
2018-11-25T05:26:12.363Z,68.17
2018-11-25T05:28:45.821Z,68.63
2018-11-25T05:31:19.782Z,72.70
2018-11-25T05:33:52.854Z,70.80
2018-11-25T05:36:29.098Z,82.33
2018-11-25T05:39:02.003Z,71.50
2018-11-25T05:41:33.427Z,102.10
2018-11-25T05:44:05.953Z,71.50
2018-11-25T05:46:40.213Z,90.50
2018-11-25T05:49:12.874Z,72.33
2018-11-25T05:51:43.555Z,66.10
2018-11-25T05:54:17.033Z,93.43
2018-11-25T05:56:50.169Z,89.17
2018-11-25T05:59:37.978Z,84.40
2018-11-25T06:02:09.173Z,73.67
2018-11-25T06:04:44.967Z,95.73
2018-11-25T06:07:15.510Z,72.00
2018-11-25T06:09:45.729Z,100.70
2018-11-25T06:12:16.684Z,114.20
2018-11-25T06:14:49.206Z,101.10
2018-11-25T06:17:20.358Z,90.17
2018-11-25T06:19:53.167Z,115.53
2018-11-25T06:22:28.654Z,100.20
2018-11-25T06:24:59.352Z,92.33
2018-11-25T06:27:30.537Z,108.03
2018-11-25T06:30:04.073Z,110.90
2018-11-25T06:32:36.964Z,134.97
2018-11-25T06:35:35.447Z,113.03
2018-11-25T06:38:08.530Z,111.40
2018-11-25T06:40:41.514Z,111.20
2018-11-25T06:43:13.442Z,107.87
2018-11-25T06:45:45.194Z,108.87
2018-11-25T06:48:16.480Z,105.40
2018-11-25T06:50:48.436Z,109.10
2018-11-25T06:53:20.005Z,131.70
2018-11-25T06:55:52.566Z,116.40
2018-11-25T06:58:26.235Z,134.90
2018-11-25T07:00:59.578Z,121.60
2018-11-25T07:03:33.903Z,150.47
2018-11-25T07:06:08.619Z,137.77
2018-11-25T07:08:39.322Z,144.07
2018-11-25T07:11:12.762Z,147.77
2018-11-25T07:13:45.766Z,156.80
2018-11-25T07:16:16.447Z,143.30
2018-11-25T07:18:49.438Z,144.00
2018-11-25T07:21:22.429Z,125.83
2018-11-25T07:23:53.564Z,140.17
2018-11-25T07:26:25.653Z,118.20
2018-11-25T07:28:57.407Z,124.77
2018-11-25T07:31:27.763Z,112.00
2018-11-25T07:34:01.431Z,119.13
2018-11-25T07:36:41.397Z,119.10
2018-11-25T07:39:12.519Z,111.17
2018-11-25T07:41:44.019Z,109.80
2018-11-25T07:44:14.601Z,100.90
2018-11-25T07:46:47.549Z,94.33
2018-11-25T07:49:19.592Z,100.07
2018-11-25T07:51:52.579Z,96.00
2018-11-25T07:54:25.510Z,95.47
2018-11-25T07:56:59.854Z,90.43
2018-11-25T07:59:31.975Z,86.50
2018-11-25T08:02:02.497Z,97.30
2018-11-25T08:04:38.669Z,84.47
2018-11-25T08:07:10.818Z,76.83
2018-11-25T08:09:44.107Z,75.13
2018-11-25T08:12:15.591Z,66.03
2018-11-25T08:14:48.848Z,63.07
2018-11-25T08:17:20.291Z,61.80
2018-11-25T08:19:50.995Z,53.43
2018-11-25T08:22:23.653Z,52.47
2018-11-25T08:25:01.226Z,56.43
2018-11-25T08:27:34.996Z,57.57
2018-11-25T08:30:11.330Z,57.53
2018-11-25T08:33:01.585Z,63.83
2018-11-25T08:35:34.817Z,60.17
2018-11-25T08:38:07.702Z,64.43
2018-11-25T08:40:38.596Z,58.23
2018-11-25T08:43:09.145Z,59.77
2018-11-25T08:45:41.774Z,61.00
2018-11-25T08:48:13.050Z,54.90
2018-11-25T08:50:45.893Z,64.90
2018-11-25T08:53:18.858Z,61.63
2018-11-25T08:55:50.149Z,63.47
2018-11-25T08:58:21.927Z,71.80
2018-11-25T09:00:52.902Z,76.20
2018-11-25T09:03:25.140Z,79.10
2018-11-25T09:05:56.772Z,81.33
2018-11-25T09:08:27.435Z,77.00
2018-11-25T09:11:00.657Z,74.33
2018-11-25T09:13:31.442Z,74.67
2018-11-25T09:16:07.058Z,80.73
2018-11-25T09:18:39.066Z,90.90
2018-11-25T09:21:12.590Z,76.90
2018-11-25T09:23:44.058Z,86.60
2018-11-25T09:26:14.953Z,78.37
2018-11-25T09:28:45.609Z,102.93
2018-11-25T09:31:16.145Z,81.20
2018-11-25T09:33:50.116Z,87.27
2018-11-25T09:36:22.002Z,95.03
2018-11-25T09:38:53.343Z,80.30
2018-11-25T09:41:26.734Z,76.80
2018-11-25T09:43:59.426Z,77.00
2018-11-25T09:46:32.693Z,87.70
2018-11-25T09:49:07.682Z,81.03
2018-11-25T09:51:39.034Z,85.77
2018-11-25T09:54:11.209Z,92.20
2018-11-25T09:56:44.402Z,77.10
2018-11-25T09:59:16.291Z,84.67
2018-11-25T10:01:48.358Z,87.53
2018-11-25T10:04:18.891Z,86.20
2018-11-25T10:06:51.101Z,82.00
2018-11-25T10:09:21.921Z,87.33
2018-11-25T10:11:54.165Z,78.50
2018-11-25T10:14:25.314Z,83.23
2018-11-25T10:16:58.126Z,80.50
2018-11-25T10:19:29.403Z,87.33
2018-11-25T10:22:02.628Z,86.37
2018-11-25T10:24:35.555Z,95.43
2018-11-25T10:27:09.498Z,86.67
2018-11-25T10:29:40.090Z,93.00
2018-11-25T10:32:10.804Z,78.87
2018-11-25T10:34:49.298Z,81.47
2018-11-25T10:37:22.458Z,82.17
2018-11-25T10:39:53.022Z,88.10
2018-11-25T10:42:30.564Z,85.07
2018-11-25T10:45:04.017Z,79.50
2018-11-25T10:47:40.113Z,75.50
2018-11-25T10:50:15.818Z,73.10
2018-11-25T10:53:02.584Z,72.87
2018-11-25T10:55:35.771Z,77.40
2018-11-25T10:58:08.544Z,77.07
2018-11-25T11:00:54.426Z,67.93
2018-11-25T11:03:31.497Z,70.80
2018-11-25T11:06:09.746Z,72.90
2018-11-25T11:08:42.390Z,67.67
2018-11-25T11:11:13.574Z,78.53
2018-11-25T11:13:44.999Z,73.07
2018-11-25T11:16:16.593Z,76.50
2018-11-25T11:18:47.477Z,83.67
2018-11-25T11:21:20.442Z,67.57
2018-11-25T11:23:57.403Z,72.50
2018-11-25T11:26:30.411Z,68.83
2018-11-25T11:29:03.588Z,84.50
2018-11-25T11:31:34.911Z,76.67
2018-11-25T11:34:07.381Z,83.00
2018-11-25T11:36:40.910Z,76.17
2018-11-25T11:39:13.689Z,73.03
2018-11-25T11:41:44.875Z,74.63
2018-11-25T11:44:20.801Z,74.40
2018-11-25T11:46:51.708Z,68.83
2018-11-25T11:49:24.682Z,64.33
2018-11-25T11:51:58.738Z,75.10
2018-11-25T11:54:31.010Z,63.67
2018-11-25T11:57:02.883Z,64.67
2018-11-25T11:59:33.611Z,73.33
2018-11-25T12:02:06.384Z,65.70
2018-11-25T12:04:37.709Z,67.50
2018-11-25T12:07:09.541Z,69.30
2018-11-25T12:09:46.813Z,69.77
2018-11-25T12:12:20.038Z,63.07
2018-11-25T12:14:51.836Z,67.43
2018-11-25T12:17:25.640Z,66.23
2018-11-25T12:19:56.181Z,63.00
2018-11-25T12:22:26.430Z,73.13
2018-11-25T12:24:57.033Z,64.40
2018-11-25T12:27:30.894Z,61.27
2018-11-25T12:30:05.725Z,59.47
2018-11-25T12:32:36.846Z,65.27
2018-11-25T12:35:08.964Z,60.83
2018-11-25T12:37:41.031Z,68.63
2018-11-25T12:40:16.708Z,71.87
2018-11-25T12:43:14.613Z,71.80
2018-11-25T12:45:45.806Z,67.43
2018-11-25T12:48:31.926Z,79.53
2018-11-25T12:51:04.038Z,72.17
2018-11-25T12:53:35.842Z,72.60
2018-11-25T12:56:08.209Z,67.97
2018-11-25T12:58:41.451Z,72.30
2018-11-25T13:01:24.531Z,61.43
2018-11-25T13:03:56.625Z,75.13
2018-11-25T13:06:30.834Z,77.80
2018-11-25T13:09:04.889Z,72.03
2018-11-25T13:11:37.165Z,64.37
2018-11-25T13:14:08.155Z,64.80
2018-11-25T13:16:41.369Z,69.23
2018-11-25T13:19:13.683Z,75.90
2018-11-25T13:21:44.972Z,80.30
2018-11-25T13:24:17.709Z,67.43
2018-11-25T13:26:51.636Z,72.40
2018-11-25T13:29:22.157Z,68.43
2018-11-25T13:31:55.082Z,76.43
2018-11-25T13:34:28.097Z,59.43
2018-11-25T13:36:59.426Z,70.47
2018-11-25T13:39:32.353Z,70.17
2018-11-25T13:42:04.098Z,67.13
2018-11-25T13:44:43.204Z,83.00
2018-11-25T13:47:14.771Z,65.53
2018-11-25T13:49:51.981Z,74.17
2018-11-25T13:52:24.881Z,88.87
2018-11-25T13:54:55.162Z,82.80
2018-11-25T13:57:26.170Z,96.83
2018-11-25T13:59:57.069Z,87.17
2018-11-25T14:02:30.030Z,85.17
2018-11-25T14:05:03.632Z,84.50
2018-11-25T14:07:36.121Z,84.23
2018-11-25T14:10:13.658Z,85.60
2018-11-25T14:12:54.376Z,75.93
2018-11-25T14:15:27.827Z,92.77
2018-11-25T14:17:59.143Z,80.03
2018-11-25T14:20:29.450Z,113.40
2018-11-25T14:23:00.167Z,81.70
2018-11-25T14:25:34.758Z,95.40
2018-11-25T14:28:09.837Z,80.03
2018-11-25T14:30:41.549Z,83.13
2018-11-25T14:33:13.356Z,86.37
2018-11-25T14:35:53.679Z,73.57
2018-11-25T14:38:27.125Z,92.00
2018-11-25T14:41:00.717Z,125.87
2018-11-25T14:43:33.602Z,72.20
2018-11-25T14:46:03.964Z,65.23
2018-11-25T14:48:34.501Z,71.47
2018-11-25T14:51:07.712Z,71.20
2018-11-25T14:53:38.535Z,66.00
2018-11-25T14:56:11.327Z,71.73
2018-11-25T14:58:46.539Z,72.93
2018-11-25T15:01:20.826Z,63.20
2018-11-25T15:03:53.375Z,63.63
2018-11-25T15:06:29.483Z,72.07
2018-11-25T15:09:06.559Z,66.07
2018-11-25T15:11:37.808Z,70.90
2018-11-25T15:14:08.989Z,65.67
2018-11-25T15:16:41.527Z,63.63
2018-11-25T15:19:13.687Z,71.60
2018-11-25T15:21:49.415Z,63.10
2018-11-25T15:24:27.859Z,60.80
2018-11-25T15:27:00.742Z,64.97
2018-11-25T15:29:33.695Z,84.00
2018-11-25T15:32:05.332Z,74.03
2018-11-25T15:34:43.453Z,66.53
2018-11-25T15:37:14.008Z,60.60
2018-11-25T15:39:44.986Z,64.63
2018-11-25T15:42:16.789Z,69.73
2018-11-25T15:44:47.641Z,60.20
2018-11-25T15:47:22.808Z,59.90
2018-11-25T15:49:55.014Z,87.20
2018-11-25T15:52:28.017Z,66.40
2018-11-25T15:54:58.257Z,64.50
2018-11-25T15:57:29.009Z,60.43
2018-11-25T16:00:02.036Z,64.67
2018-11-25T16:02:35.026Z,60.63
2018-11-25T16:05:07.769Z,65.37
2018-11-25T16:07:39.822Z,60.00
2018-11-25T16:10:13.917Z,59.53
2018-11-25T16:12:57.255Z,58.40
2018-11-25T16:15:36.741Z,64.43
2018-11-25T16:18:10.092Z,62.53
2018-11-25T16:20:42.517Z,68.40
2018-11-25T16:23:13.691Z,70.80
2018-11-25T16:25:54.968Z,59.97
2018-11-25T16:28:34.714Z,70.83
2018-11-25T16:31:18.652Z,68.37
2018-11-25T16:33:51.129Z,69.27
2018-11-25T16:36:24.966Z,71.07
2018-11-25T16:39:02.172Z,64.17
2018-11-25T16:41:34.089Z,63.30
2018-11-25T16:44:04.669Z,66.37
2018-11-25T16:46:35.273Z,71.60
2018-11-25T16:49:08.993Z,68.20
2018-11-25T16:51:41.394Z,65.30
2018-11-25T16:54:14.032Z,79.67
2018-11-25T16:56:44.772Z,72.77
2018-11-25T16:59:16.963Z,64.20
2018-11-25T17:01:51.913Z,63.00
2018-11-25T17:04:22.638Z,71.00
2018-11-25T17:07:04.235Z,72.40
2018-11-25T17:09:35.375Z,61.97
2018-11-25T17:12:08.395Z,59.83
2018-11-25T17:14:39.254Z,62.93
2018-11-25T17:17:13.173Z,59.97
2018-11-25T17:19:45.344Z,77.20
2018-11-25T17:22:20.109Z,63.80
2018-11-25T17:25:01.303Z,67.80
2018-11-25T17:27:35.538Z,66.37
2018-11-25T17:30:14.674Z,65.50
2018-11-25T17:32:49.205Z,66.47
2018-11-25T17:35:28.279Z,65.80
2018-11-25T17:38:01.898Z,66.30
2018-11-25T17:40:36.484Z,59.10
2018-11-25T17:43:09.757Z,55.33
2018-11-25T17:45:40.379Z,55.50
2018-11-25T17:48:11.300Z,58.77
2018-11-25T17:50:47.140Z,59.10
2018-11-25T17:53:20.841Z,64.77
2018-11-25T17:55:51.591Z,56.33
2018-11-25T17:58:22.362Z,54.30
2018-11-25T18:01:00.185Z,58.07
2018-11-25T18:03:32.517Z,52.10
2018-11-25T18:06:06.312Z,56.37
2018-11-25T18:08:38.494Z,58.30
2018-11-25T18:11:12.534Z,56.17
2018-11-25T18:13:45.280Z,50.83
2018-11-25T18:16:18.269Z,58.20
2018-11-25T18:18:52.303Z,57.13
2018-11-25T18:21:26.073Z,56.90
2018-11-25T18:24:01.510Z,62.73
2018-11-25T18:26:34.754Z,54.27
2018-11-25T18:29:05.970Z,52.00
2018-11-25T18:31:38.457Z,45.13
2018-11-25T18:34:17.996Z,38.60
2018-11-25T18:36:50.512Z,46.00
2018-11-25T18:39:21.523Z,40.30
2018-11-25T18:41:56.387Z,33.90
2018-11-25T18:44:29.002Z,38.47
2018-11-25T18:47:00.893Z,48.40
2018-11-25T18:49:32.008Z,44.00
2018-11-25T18:52:05.319Z,41.77
2018-11-25T18:54:45.682Z,39.20
2018-11-25T18:57:20.490Z,41.83
2018-11-25T18:59:55.282Z,30.33
2018-11-25T19:02:35.115Z,38.90
2018-11-25T19:05:08.658Z,32.03
2018-11-25T19:07:40.334Z,42.03
2018-11-25T19:10:23.503Z,36.40
2018-11-25T19:12:58.754Z,33.60
2018-11-25T19:15:34.757Z,31.33
2018-11-25T19:20:46.069Z,35.90
2018-11-25T19:23:19.166Z,34.67
2018-11-25T19:26:00.668Z,39.00
2018-11-25T19:28:33.508Z,29.60
2018-11-25T19:31:12.869Z,31.57
2018-11-25T19:33:44.082Z,29.37
2018-11-25T19:36:14.976Z,24.20
2018-11-25T19:38:47.602Z,27.63
2018-11-25T19:41:20.754Z,29.13
2018-11-25T19:43:52.043Z,27.53
2018-11-25T19:46:24.939Z,22.87
2018-11-25T19:48:59.278Z,28.17
2018-11-25T19:51:35.190Z,24.73
2018-11-25T19:54:11.521Z,24.40
2018-11-25T19:56:52.948Z,27.53
2018-11-25T19:59:25.933Z,21.93
2018-11-25T20:01:57.065Z,23.97
2018-11-25T20:04:29.204Z,27.80
2018-11-25T20:07:01.236Z,24.07
2018-11-25T20:09:34.706Z,30.27
2018-11-25T20:12:06.962Z,23.70
2018-11-25T20:14:39.364Z,24.17
2018-11-25T20:17:17.717Z,25.23
2018-11-25T20:19:51.042Z,31.83
2018-11-25T20:22:25.548Z,27.13
2018-11-25T20:24:58.322Z,26.07
2018-11-25T20:27:34.506Z,28.50
2018-11-25T20:30:13.828Z,33.60
2018-11-25T20:33:02.272Z,29.10
2018-11-25T20:35:34.152Z,26.53
2018-11-25T20:38:30.831Z,22.43
2018-11-25T20:41:04.146Z,31.30
2018-11-25T20:43:38.022Z,29.73
2018-11-25T20:46:14.771Z,30.47
2018-11-25T20:48:52.233Z,27.30
2018-11-25T20:51:28.424Z,27.50
2018-11-25T20:54:00.241Z,29.67
2018-11-25T20:56:32.083Z,30.17
2018-11-25T20:59:03.182Z,27.97
2018-11-25T21:01:36.173Z,29.13
2018-11-25T21:04:09.260Z,29.87
2018-11-25T21:06:42.604Z,27.07
2018-11-25T21:09:13.274Z,28.13
2018-11-25T21:11:46.081Z,24.67
2018-11-25T21:14:17.143Z,34.17
2018-11-25T21:16:50.200Z,29.37
2018-11-25T21:19:27.242Z,26.77
2018-11-25T21:21:59.568Z,26.70
2018-11-25T21:24:30.479Z,30.17
2018-11-25T21:27:03.409Z,24.53
2018-11-25T21:29:34.590Z,28.47
2018-11-25T21:32:07.454Z,23.50
2018-11-25T21:34:40.384Z,24.63
2018-11-25T21:37:13.370Z,27.80
2018-11-25T21:39:46.519Z,31.33
2018-11-25T21:42:17.688Z,30.97
2018-11-25T21:44:52.176Z,30.23
2018-11-25T21:47:24.413Z,27.43
2018-11-25T21:49:57.386Z,30.37
2018-11-25T21:52:31.149Z,34.40
2018-11-25T21:55:04.836Z,31.23
2018-11-25T21:57:38.514Z,30.20
2018-11-25T22:00:31.329Z,24.23
2018-11-25T22:03:02.373Z,34.50
2018-11-25T22:05:36.158Z,31.30
2018-11-25T22:08:08.736Z,28.00
2018-11-25T22:10:42.649Z,28.17
2018-11-25T22:13:17.214Z,29.47
2018-11-25T22:15:48.474Z,31.97
2018-11-25T22:18:20.526Z,27.37
2018-11-25T22:20:52.564Z,28.27
2018-11-25T22:23:23.294Z,30.27
2018-11-25T22:26:05.241Z,30.67
2018-11-25T22:28:40.109Z,28.43
2018-11-25T22:31:12.483Z,38.33
2018-11-25T22:33:49.379Z,34.40
2018-11-25T22:36:21.647Z,37.70
2018-11-25T22:38:53.153Z,42.57
2018-11-25T22:41:26.001Z,41.50
2018-11-25T22:43:56.517Z,41.43
2018-11-25T22:46:27.694Z,34.63
2018-11-25T22:49:00.057Z,42.33
2018-11-25T22:51:30.770Z,39.73
2018-11-25T22:54:05.886Z,41.50
2018-11-25T22:56:38.595Z,45.87
2018-11-25T22:59:10.908Z,36.47
2018-11-25T23:01:43.776Z,42.17
2018-11-25T23:04:25.712Z,36.33
2018-11-25T23:07:03.064Z,44.30
2018-11-25T23:09:33.660Z,43.43
2018-11-25T23:12:07.093Z,39.80
2018-11-25T23:14:39.091Z,41.17
2018-11-25T23:17:11.073Z,42.97
2018-11-25T23:19:41.789Z,40.23
2018-11-25T23:22:17.745Z,35.30
2018-11-25T23:24:48.270Z,41.57
2018-11-25T23:27:18.900Z,42.40
2018-11-25T23:29:52.033Z,41.63
2018-11-25T23:32:25.006Z,40.60
2018-11-25T23:34:56.672Z,34.03
2018-11-25T23:37:32.842Z,42.20
2018-11-25T23:40:05.818Z,34.83
2018-11-25T23:42:38.814Z,38.33
2018-11-25T23:45:13.905Z,30.00
2018-11-25T23:47:56.766Z,38.03
2018-11-25T23:50:31.596Z,33.30
2018-11-25T23:53:07.202Z,36.37
2018-11-25T23:55:39.816Z,39.40
2018-11-25T23:58:13.949Z,37.83
